Time;durP1;ratioP1;P1;durP2;ratioP2;P2;SDS_P1;SDS_P2;PMS_P1;PMS_P2;Temp;Humidity;BMP_temperature;BMP_pressure;BME280_temperature;BME280_humidity;BME280_pressure;Samples;Min_cycle;Max_cycle;Signal;HPM_P1;HPM_P2
2024/04/01 00:00:40;;;;;;;18.93;13.30;;;;;22.50;98355.00;;;;2040516;28;20641;-57
2024/04/01 00:01:40;;;;;;;16.90;12.43;;;;;22.40;98349.00;;;;2047927;28;20259;-56
2024/04/01 00:02:40;;;;;;;18.13;13.03;;;;;22.40;98353.00;;;;2051579;28;20219;-56
2024/04/01 00:03:41;;;;;;;19.80;13.23;;;;;22.40;98353.00;;;;2049922;28;20365;-56
2024/04/01 00:04:41;;;;;;;16.23;12.20;;;;;22.50;98358.00;;;;2050463;28;20297;-58
2024/04/01 00:05:52;;;;;;;18.87;13.37;;;;;22.40;98360.00;;;;2042135;28;20215;-57
2024/04/01 00:06:52;;;;;;;19.33;11.88;;;;;22.50;98364.00;;;;2029780;28;20260;-57
2024/04/01 00:07:52;;;;;;;16.40;12.53;;;;;22.40;98355.00;;;;2035631;29;20984;-58
2024/04/01 00:08:53;;;;;;;17.80;12.20;;;;;22.40;98291.00;;;;2048251;28;20277;-56
2024/04/01 00:09:53;;;;;;;16.00;11.60;;;;;22.40;98351.00;;;;2041081;28;20688;-57
2024/04/01 00:10:53;;;;;;;18.60;12.57;;;;;22.40;98352.00;;;;2050936;28;20282;-57
2024/04/01 00:11:54;;;;;;;18.27;11.97;;;;;22.40;98356.00;;;;2048609;28;20243;-57
2024/04/01 00:12:54;;;;;;;17.13;11.50;;;;;22.40;98352.00;;;;2056059;28;20416;-56
2024/04/01 00:13:55;;;;;;;16.53;11.27;;;;;22.40;98351.00;;;;2052414;28;20688;-56
2024/04/01 00:14:55;;;;;;;18.50;12.10;;;;;22.40;98348.00;;;;2041620;28;20208;-57
2024/04/01 00:15:55;;;;;;;16.80;11.90;;;;;22.40;98352.00;;;;2051372;28;20215;-56
2024/04/01 00:16:55;;;;;;;16.10;10.97;;;;;22.40;98356.00;;;;2048641;28;20244;-57
2024/04/01 00:17:56;;;;;;;15.67;10.70;;;;;22.40;98357.00;;;;2051836;28;20223;-57
2024/04/01 00:18:56;;;;;;;15.83;11.80;;;;;22.40;98345.00;;;;2046859;28;20203;-58
2024/04/01 00:19:56;;;;;;;16.77;11.53;;;;;22.40;98344.00;;;;2040411;28;20283;-56
2024/04/01 00:20:57;;;;;;;15.83;11.07;;;;;22.40;98355.00;;;;2051344;28;20407;-56
2024/04/01 00:21:57;;;;;;;17.13;10.77;;;;;22.40;98347.00;;;;2051403;28;20215;-57
2024/04/01 00:22:58;;;;;;;16.57;11.80;;;;;22.40;98344.00;;;;2052308;28;20220;-56
2024/04/01 00:23:59;;;;;;;13.80;10.33;;;;;22.40;98342.00;;;;2051047;28;20239;-56
2024/04/01 00:24:59;;;;;;;17.80;11.40;;;;;22.40;98345.00;;;;2041787;28;21122;-57
2024/04/01 00:25:59;;;;;;;17.53;11.13;;;;;22.40;98353.00;;;;2051447;28;20212;-56
2024/04/01 00:27:00;;;;;;;15.60;10.50;;;;;22.40;98345.00;;;;2048972;28;20208;-57
2024/04/01 00:28:00;;;;;;;15.50;11.13;;;;;22.10;98342.00;;;;2051790;28;20223;-57
2024/04/01 00:29:00;;;;;;;14.80;10.50;;;;;22.40;98340.00;;;;2052273;28;20226;-57
2024/04/01 00:30:03;;;;;;;16.87;10.03;;;;;22.40;98339.00;;;;2045129;28;20214;-57
2024/04/01 00:31:03;;;;;;;15.48;10.82;;;;;22.40;98335.00;;;;2050323;28;20297;-57
2024/04/01 00:32:04;;;;;;;13.60;9.63;;;;;22.30;98338.00;;;;2049464;28;20215;-57
2024/04/01 00:33:04;;;;;;;15.20;10.00;;;;;22.40;98329.00;;;;2052130;28;20712;-56
2024/04/01 00:34:04;;;;;;;13.03;9.63;;;;;22.30;98326.00;;;;2050376;28;20218;-56
2024/04/01 00:35:05;;;;;;;15.40;9.13;;;;;22.40;98323.00;;;;2037579;28;20615;-56
2024/04/01 00:36:05;;;;;;;15.23;10.53;;;;;22.40;98318.00;;;;2051400;28;20698;-57
2024/04/01 00:37:06;;;;;;;13.37;9.00;;;;;22.40;98308.00;;;;2052153;28;20298;-58
2024/04/01 00:38:06;;;;;;;14.80;8.90;;;;;22.40;98313.00;;;;2049162;28;20259;-57
2024/04/01 00:39:07;;;;;;;12.33;9.50;;;;;22.40;98307.00;;;;2050895;28;20211;-57
2024/04/01 00:40:07;;;;;;;14.37;10.17;;;;;22.40;98303.00;;;;2034600;28;20224;-56
2024/04/01 00:41:08;;;;;;;14.00;9.10;;;;;22.30;98297.00;;;;2049129;28;20490;-57
2024/04/01 00:42:08;;;;;;;14.60;9.23;;;;;22.30;98302.00;;;;2049361;28;20215;-57
2024/04/01 00:43:09;;;;;;;13.30;9.43;;;;;22.30;98295.00;;;;2039556;28;20223;-56
2024/04/01 00:44:09;;;;;;;13.83;9.07;;;;;22.30;98294.00;;;;2044915;28;20436;-56
2024/04/01 00:45:09;;;;;;;12.10;9.27;;;;;22.30;98278.00;;;;2036620;28;20251;-57
2024/04/01 00:46:10;;;;;;;14.03;9.40;;;;;22.30;98292.00;;;;2043909;28;20291;-56
2024/04/01 00:47:10;;;;;;;13.67;9.23;;;;;22.30;98293.00;;;;2050299;28;20650;-56
2024/04/01 00:48:12;;;;;;;12.73;8.63;;;;;22.30;98294.00;;;;2051341;28;20568;-57
2024/04/01 00:49:12;;;;;;;14.60;8.52;;;;;22.30;98294.00;;;;2041553;28;20318;-57
2024/04/01 00:50:12;;;;;;;10.40;8.10;;;;;22.30;98288.00;;;;2029860;28;20330;-56
2024/04/01 00:51:13;;;;;;;17.63;8.80;;;;;22.30;98299.00;;;;2042638;28;20212;-57
2024/04/01 00:52:15;;;;;;;12.77;8.67;;;;;22.30;98292.00;;;;2044272;28;20212;-58
2024/04/01 00:53:16;;;;;;;11.25;8.23;;;;;22.30;98288.00;;;;2049711;28;20223;-57
2024/04/01 00:54:17;;;;;;;13.30;8.27;;;;;22.30;98308.00;;;;2042488;28;20591;-58
2024/04/01 00:55:17;;;;;;;14.10;9.00;;;;;22.30;98307.00;;;;2030637;28;20223;-58
2024/04/01 00:56:17;;;;;;;12.70;8.83;;;;;22.30;98306.00;;;;2051829;28;20309;-56
2024/04/01 00:57:18;;;;;;;12.90;8.43;;;;;22.30;98311.00;;;;2042610;28;20220;-57
2024/04/01 00:58:18;;;;;;;11.00;8.20;;;;;22.30;98309.00;;;;2029292;29;20233;-57
2024/04/01 00:59:18;;;;;;;12.27;8.50;;;;;22.30;98301.00;;;;2043377;28;20240;-56
2024/04/01 01:00:19;;;;;;;12.63;8.73;;;;;22.30;98308.00;;;;2032826;28;20665;-57
2024/04/01 01:01:20;;;;;;;11.57;7.83;;;;;22.30;98305.00;;;;2041909;28;20661;-57
2024/04/01 01:02:20;;;;;;;12.70;8.10;;;;;22.30;98315.00;;;;2044122;28;20240;-57
2024/04/01 01:03:20;;;;;;;10.80;7.83;;;;;22.30;98309.00;;;;2042857;28;20476;-56
2024/04/01 01:04:21;;;;;;;10.50;7.80;;;;;22.30;98293.00;;;;2027695;29;20232;-56
2024/04/01 01:05:21;;;;;;;12.10;8.50;;;;;22.30;98301.00;;;;2029412;29;20239;-57
2024/04/01 01:06:22;;;;;;;11.13;7.70;;;;;22.30;98302.00;;;;2043490;28;20239;-58
2024/04/01 01:07:23;;;;;;;12.83;7.70;;;;;22.30;98298.00;;;;2041430;28;20310;-56
2024/04/01 01:08:24;;;;;;;12.05;8.07;;;;;22.30;98302.00;;;;2027987;29;20702;-57
2024/04/01 01:09:25;;;;;;;12.80;8.00;;;;;22.30;98316.00;;;;2032384;29;20272;-57
2024/04/01 01:10:25;;;;;;;11.00;7.33;;;;;22.30;98320.00;;;;2029929;28;20295;-57
2024/04/01 01:11:25;;;;;;;10.70;7.87;;;;;22.30;98308.00;;;;2042118;28;20219;-57
2024/04/01 01:12:26;;;;;;;12.10;7.30;;;;;22.30;98306.00;;;;2045072;28;20395;-57
2024/04/01 01:13:26;;;;;;;11.57;7.30;;;;;22.30;98308.00;;;;2043214;28;20638;-61
2024/04/01 01:14:26;;;;;;;13.07;8.00;;;;;22.30;98309.00;;;;2040497;28;20243;-56
2024/04/01 01:15:27;;;;;;;11.97;7.33;;;;;22.30;98315.00;;;;2041725;28;20645;-62
2024/04/01 01:16:27;;;;;;;11.17;7.73;;;;;22.30;98302.00;;;;2042618;28;20209;-57
2024/04/01 01:17:27;;;;;;;10.10;7.00;;;;;22.30;98311.00;;;;2043310;28;20227;-57
2024/04/01 01:18:28;;;;;;;10.50;7.23;;;;;22.30;98304.00;;;;2043084;28;20220;-57
2024/04/01 01:19:28;;;;;;;11.40;7.33;;;;;22.30;98306.00;;;;2042458;28;20943;-56
2024/04/01 01:20:28;;;;;;;10.50;7.00;;;;;22.30;98301.00;;;;2038189;28;20584;-57
2024/04/01 01:21:29;;;;;;;10.27;6.63;;;;;22.30;98301.00;;;;2050363;28;20238;-55
2024/04/01 01:22:33;;;;;;;10.03;6.97;;;;;22.30;98214.00;;;;2056131;28;20253;-56
2024/04/01 01:23:34;;;;;;;11.75;7.75;;;;;22.30;98295.00;;;;2051242;28;20742;-58
2024/04/01 01:24:34;;;;;;;9.53;7.27;;;;;22.30;98301.00;;;;2050710;28;20227;-57
2024/04/01 01:25:37;;;;;;;14.20;8.23;;;;;22.30;98303.00;;;;2041536;28;20224;-57
2024/04/01 01:26:38;;;;;;;11.93;7.93;;;;;22.30;98295.00;;;;2045931;28;20247;-56
2024/04/01 01:27:39;;;;;;;11.87;7.60;;;;;22.00;98297.00;;;;2049596;28;20274;-56
2024/04/01 01:28:40;;;;;;;10.63;7.25;;;;;22.20;98308.00;;;;2056112;28;20207;-56
2024/04/01 01:29:40;;;;;;;10.27;6.97;;;;;22.30;98301.00;;;;2040461;28;20220;-56
2024/04/01 01:30:40;;;;;;;10.63;7.10;;;;;22.30;98300.00;;;;2032217;28;20216;-58
2024/04/01 01:31:41;;;;;;;10.37;6.90;;;;;22.30;98298.00;;;;2053236;28;20335;-57
2024/04/01 01:32:53;;;;;;;7.97;6.47;;;;;22.30;98295.00;;;;2056708;28;20257;-58
2024/04/01 01:33:54;;;;;;;9.75;6.03;;;;;22.30;98301.00;;;;2053737;28;20219;-57
2024/04/01 01:34:54;;;;;;;9.43;6.30;;;;;22.20;98302.00;;;;2037290;28;20750;-57
2024/04/01 01:35:54;;;;;;;9.80;7.00;;;;;22.30;98299.00;;;;2043324;28;20869;-57
2024/04/01 01:36:55;;;;;;;11.13;6.80;;;;;22.20;98288.00;;;;2045274;28;20964;-56
2024/04/01 01:37:55;;;;;;;8.80;6.27;;;;;22.20;98291.00;;;;2043847;28;20232;-56
2024/04/01 01:38:55;;;;;;;9.83;7.00;;;;;22.20;98291.00;;;;2044667;29;20271;-56
2024/04/01 01:39:56;;;;;;;10.90;6.50;;;;;22.20;98295.00;;;;2027549;28;20212;-56
2024/04/01 01:40:56;;;;;;;8.90;6.13;;;;;22.20;98285.00;;;;2044317;28;20220;-56
2024/04/01 01:41:56;;;;;;;8.90;5.90;;;;;22.20;98284.00;;;;2048388;28;20219;-58
2024/04/01 01:42:57;;;;;;;9.47;6.20;;;;;22.20;98286.00;;;;2044818;28;20224;-58
2024/04/01 01:43:57;;;;;;;8.63;5.77;;;;;22.30;98284.00;;;;2045331;28;20235;-58
2024/04/01 01:44:57;;;;;;;10.40;6.40;;;;;22.20;98286.00;;;;2034610;28;20217;-56
2024/04/01 01:45:58;;;;;;;8.47;6.13;;;;;22.20;98279.00;;;;2042338;28;20217;-57
2024/04/01 01:46:58;;;;;;;8.90;6.00;;;;;22.20;98293.00;;;;2051816;28;20958;-61
2024/04/01 01:47:58;;;;;;;9.90;6.60;;;;;22.20;98274.00;;;;2053134;28;20697;-56
2024/04/01 01:48:59;;;;;;;8.80;5.77;;;;;22.20;98269.00;;;;2051819;28;20219;-57
2024/04/01 01:49:59;;;;;;;9.93;6.57;;;;;22.20;98266.00;;;;2041105;28;20385;-59
2024/04/01 01:51:00;;;;;;;6.80;4.63;;;;;22.20;98205.00;;;;2051470;28;20216;-57
2024/04/01 01:52:00;;;;;;;8.70;5.93;;;;;22.20;98280.00;;;;2049005;28;20594;-56
2024/04/01 01:53:00;;;;;;;8.40;5.70;;;;;22.20;98270.00;;;;2045805;28;20595;-55
2024/04/01 01:54:01;;;;;;;7.00;4.80;;;;;22.20;98266.00;;;;2053366;28;20586;-56
2024/04/01 01:55:01;;;;;;;8.77;5.77;;;;;22.20;98263.00;;;;2042901;28;20212;-57
2024/04/01 01:56:01;;;;;;;8.17;5.40;;;;;22.20;98264.00;;;;2052973;28;20235;-57
2024/04/01 01:57:02;;;;;;;10.27;6.40;;;;;22.20;98260.00;;;;2050589;28;20215;-56
2024/04/01 01:58:02;;;;;;;10.23;6.50;;;;;22.20;98261.00;;;;2060652;28;20226;-58
2024/04/01 01:59:02;;;;;;;10.07;5.87;;;;;22.20;98255.00;;;;2049063;28;20655;-56
2024/04/01 02:00:05;;;;;;;7.87;4.77;;;;;22.20;98248.00;;;;2043329;28;20214;-57
2024/04/01 02:01:05;;;;;;;7.85;5.20;;;;;22.20;98246.00;;;;2047125;28;20719;-56
2024/04/01 02:02:06;;;;;;;7.97;5.00;;;;;22.20;98250.00;;;;2055420;28;20207;-57
2024/04/01 02:03:06;;;;;;;8.30;5.53;;;;;22.20;98243.00;;;;2053515;28;20211;-57
2024/04/01 02:04:06;;;;;;;9.50;5.30;;;;;22.20;98252.00;;;;2051292;28;20311;-57
2024/04/01 02:05:07;;;;;;;7.50;5.00;;;;;22.20;98236.00;;;;2043733;28;20215;-57
2024/04/01 02:06:07;;;;;;;8.20;5.00;;;;;22.20;98242.00;;;;2049892;28;20212;-57
2024/04/01 02:07:08;;;;;;;8.00;5.20;;;;;22.20;98241.00;;;;2052251;28;20663;-56
2024/04/01 02:08:09;;;;;;;9.45;5.65;;;;;22.20;98237.00;;;;2053164;28;20223;-58
2024/04/01 02:09:10;;;;;;;7.80;4.87;;;;;22.20;98233.00;;;;2052421;28;20213;-58
2024/04/01 02:10:13;;;;;;;6.63;4.63;;;;;22.20;98229.00;;;;2043493;28;20204;-56
2024/04/01 02:11:13;;;;;;;7.30;4.93;;;;;22.20;98234.00;;;;2049351;28;20286;-57
2024/04/01 02:12:14;;;;;;;7.50;5.27;;;;;22.20;98234.00;;;;2051341;28;20204;-56
2024/04/01 02:13:14;;;;;;;7.47;5.10;;;;;22.20;98231.00;;;;2059237;28;20215;-56
2024/04/01 02:14:14;;;;;;;8.00;4.83;;;;;22.20;98222.00;;;;2050299;28;20211;-56
2024/04/01 02:15:19;;;;;;;8.10;4.77;;;;;22.20;98233.00;;;;2041780;28;20252;-57
2024/04/01 02:16:19;;;;;;;7.05;4.60;;;;;22.20;98226.00;;;;2052697;28;20639;-56
2024/04/01 02:17:19;;;;;;;7.43;4.70;;;;;22.10;98223.00;;;;2055429;28;20230;-56
2024/04/01 02:18:21;;;;;;;6.67;4.60;;;;;22.20;98237.00;;;;2057136;28;20255;-56
2024/04/01 02:19:21;;;;;;;6.70;4.90;;;;;22.20;98235.00;;;;2053267;28;20200;-57
2024/04/01 02:20:22;;;;;;;7.30;4.90;;;;;22.20;98230.00;;;;2043194;28;20219;-56
2024/04/01 02:21:22;;;;;;;7.17;4.20;;;;;22.20;98236.00;;;;2052493;28;20223;-57
2024/04/01 02:22:22;;;;;;;7.20;4.50;;;;;22.20;98230.00;;;;2048058;28;20226;-56
2024/04/01 02:23:29;;;;;;;6.40;4.10;;;;;22.10;98228.00;;;;2051538;28;20242;-57
2024/04/01 02:24:29;;;;;;;6.43;4.35;;;;;22.10;98223.00;;;;2053269;28;20281;-57
2024/04/01 02:25:30;;;;;;;6.93;4.37;;;;;22.10;98214.00;;;;2043374;28;20258;-56
2024/04/01 02:26:30;;;;;;;6.13;4.27;;;;;22.10;98215.00;;;;2033042;28;20709;-56
2024/04/01 02:27:30;;;;;;;7.37;4.50;;;;;22.10;98227.00;;;;2032892;29;20816;-56
2024/04/01 02:28:31;;;;;;;6.80;4.43;;;;;22.10;98215.00;;;;2051033;28;20740;-56
2024/04/01 02:29:31;;;;;;;9.03;4.60;;;;;22.10;98208.00;;;;2050050;28;20703;-56
2024/04/01 02:30:32;;;;;;;7.20;4.43;;;;;22.10;98211.00;;;;2036884;28;20223;-57
2024/04/01 02:31:32;;;;;;;7.37;4.80;;;;;22.10;98217.00;;;;2044566;28;20231;-57
2024/04/01 02:32:32;;;;;;;8.37;4.73;;;;;21.80;98088.00;;;;2046764;28;20716;-56
2024/04/01 02:33:33;;;;;;;5.80;4.13;;;;;22.10;98217.00;;;;2050927;28;20575;-57
2024/04/01 02:34:33;;;;;;;6.97;4.50;;;;;22.10;98218.00;;;;2053064;28;20635;-56
2024/04/01 02:35:33;;;;;;;6.80;3.87;;;;;22.10;98216.00;;;;2040157;28;20592;-57
2024/04/01 02:36:35;;;;;;;7.97;4.90;;;;;22.10;98223.00;;;;2047514;28;20227;-59
2024/04/01 02:37:36;;;;;;;7.15;4.43;;;;;22.10;98226.00;;;;2057583;28;20779;-56
2024/04/01 02:38:37;;;;;;;6.05;4.10;;;;;22.10;98230.00;;;;2052908;28;20269;-56
2024/04/01 02:39:37;;;;;;;7.27;3.90;;;;;22.10;98225.00;;;;2053235;28;20588;-56
2024/04/01 02:40:38;;;;;;;6.13;3.73;;;;;22.10;98226.00;;;;2040582;28;20215;-57
2024/04/01 02:41:38;;;;;;;6.33;3.50;;;;;22.10;98225.00;;;;2048664;28;20227;-56
2024/04/01 02:42:38;;;;;;;8.40;4.63;;;;;22.10;98218.00;;;;2048783;28;20228;-56
2024/04/01 02:43:39;;;;;;;7.47;4.43;;;;;22.10;98223.00;;;;2048398;28;20266;-57
2024/04/01 02:44:39;;;;;;;8.30;4.23;;;;;22.10;98233.00;;;;2050512;28;20255;-57
2024/04/01 02:45:40;;;;;;;7.43;4.03;;;;;22.10;98225.00;;;;2043670;28;20228;-57
2024/04/01 02:46:40;;;;;;;7.10;3.87;;;;;22.10;98225.00;;;;2051865;28;20760;-56
2024/04/01 02:47:41;;;;;;;5.30;3.57;;;;;22.10;98223.00;;;;2052236;28;20475;-57
2024/04/01 02:48:41;;;;;;;6.40;4.00;;;;;22.10;98230.00;;;;2053171;28;20220;-57
2024/04/01 02:49:41;;;;;;;14.40;3.97;;;;;22.10;98223.00;;;;2049846;28;20688;-56
2024/04/01 02:50:42;;;;;;;7.20;4.33;;;;;22.10;98222.00;;;;2041894;28;20598;-56
2024/04/01 02:51:44;;;;;;;5.77;3.70;;;;;22.10;98228.00;;;;2052569;28;20247;-57
2024/04/01 02:52:47;;;;;;;5.80;3.70;;;;;22.10;98234.00;;;;2046976;28;20673;-56
2024/04/01 02:53:48;;;;;;;7.88;4.20;;;;;22.10;98229.00;;;;2051330;28;21151;-57
2024/04/01 02:54:48;;;;;;;5.37;3.30;;;;;22.10;98233.00;;;;2051693;28;20216;-56
2024/04/01 02:55:48;;;;;;;5.00;3.30;;;;;22.10;98241.00;;;;2042484;28;20270;-57
2024/04/01 02:56:49;;;;;;;5.53;3.73;;;;;22.10;98243.00;;;;2051651;28;21084;-57
2024/04/01 02:57:49;;;;;;;5.17;3.40;;;;;22.10;98241.00;;;;2057998;28;20227;-58
2024/04/01 02:58:52;;;;;;;6.72;4.03;;;;;22.10;98238.00;;;;2053562;28;20235;-57
2024/04/01 02:59:52;;;;;;;5.45;3.38;;;;;22.10;98239.00;;;;2052105;28;20733;-56
2024/04/01 03:00:53;;;;;;;7.77;3.20;;;;;22.10;98242.00;;;;2039469;28;20223;-56
2024/04/01 03:01:54;;;;;;;4.70;3.30;;;;;22.10;98240.00;;;;2049608;28;20246;-57
2024/04/01 03:02:54;;;;;;;5.33;3.40;;;;;22.10;98243.00;;;;2052902;28;20471;-57
2024/04/01 03:04:03;;;;;;;6.10;3.67;;;;;22.10;98242.00;;;;2052166;28;20262;-56
2024/04/01 03:05:04;;;;;;;6.10;3.50;;;;;22.10;98238.00;;;;2034085;28;20231;-56
2024/04/01 03:06:06;;;;;;;5.50;3.30;;;;;22.10;98236.00;;;;2041907;28;20227;-57
2024/04/01 03:07:06;;;;;;;7.10;3.45;;;;;22.10;98233.00;;;;2045672;28;20252;-58
2024/04/01 03:08:07;;;;;;;4.90;3.00;;;;;22.10;98234.00;;;;2051519;28;20220;-57
2024/04/01 03:09:07;;;;;;;4.70;3.00;;;;;22.10;98232.00;;;;2051680;28;20223;-60
2024/04/01 03:10:11;;;;;;;4.23;2.90;;;;;22.10;98271.00;;;;2043144;28;20649;-57
2024/04/01 03:11:11;;;;;;;4.78;3.25;;;;;22.10;98232.00;;;;2051739;28;20682;-56
2024/04/01 03:12:12;;;;;;;4.97;3.53;;;;;22.10;98224.00;;;;2055037;28;20211;-56
2024/04/01 03:13:12;;;;;;;5.57;3.10;;;;;22.10;98215.00;;;;2051648;28;20250;-58
2024/04/01 03:14:12;;;;;;;5.50;2.90;;;;;22.00;98210.00;;;;2052253;28;20295;-57
2024/04/01 03:15:19;;;;;;;4.07;2.87;;;;;22.00;98212.00;;;;2040905;28;20247;-57
2024/04/01 03:16:19;;;;;;;5.43;3.30;;;;;22.10;98211.00;;;;2044651;28;20299;-57
2024/04/01 03:17:20;;;;;;;5.90;3.40;;;;;22.10;98210.00;;;;2040081;28;20209;-57
2024/04/01 03:18:20;;;;;;;4.30;2.73;;;;;22.10;98213.00;;;;2047152;28;20862;-56
2024/04/01 03:19:21;;;;;;;4.77;2.97;;;;;22.10;98203.00;;;;2052796;28;20306;-57
2024/04/01 03:20:22;;;;;;;5.15;3.00;;;;;22.10;98206.00;;;;2042854;28;20290;-57
2024/04/01 03:21:22;;;;;;;5.20;3.00;;;;;22.10;98189.00;;;;2055432;28;20211;-56
2024/04/01 03:22:23;;;;;;;4.10;2.73;;;;;22.10;98196.00;;;;2046902;28;20220;-57
2024/04/01 03:23:23;;;;;;;4.83;2.97;;;;;22.10;98198.00;;;;2051229;28;20208;-57
2024/04/01 03:24:24;;;;;;;4.10;2.40;;;;;22.10;98193.00;;;;2053114;28;20215;-56
2024/04/01 03:25:24;;;;;;;4.17;2.83;;;;;22.00;98204.00;;;;2043509;28;20626;-56
2024/04/01 03:26:24;;;;;;;7.30;3.03;;;;;22.00;98202.00;;;;2050385;28;20606;-57
2024/04/01 03:27:25;;;;;;;4.87;2.73;;;;;22.10;98217.00;;;;2046287;28;20595;-58
2024/04/01 03:28:25;;;;;;;4.57;2.57;;;;;22.00;98195.00;;;;2055100;28;22627;-56
2024/04/01 03:29:25;;;;;;;4.37;2.50;;;;;22.10;98194.00;;;;2052593;28;21154;-57
2024/04/01 03:30:26;;;;;;;4.40;2.90;;;;;22.10;98198.00;;;;2041483;28;21164;-56
2024/04/01 03:31:26;;;;;;;4.87;2.80;;;;;22.00;98190.00;;;;2045072;28;20223;-57
2024/04/01 03:32:26;;;;;;;5.13;2.23;;;;;22.10;98192.00;;;;2046336;28;20227;-56
2024/04/01 03:33:26;;;;;;;4.90;2.87;;;;;22.10;98184.00;;;;2052337;28;20266;-57
2024/04/01 03:34:27;;;;;;;5.13;3.17;;;;;22.10;98195.00;;;;2051389;28;20509;-57
2024/04/01 03:35:27;;;;;;;3.80;2.40;;;;;22.10;98189.00;;;;2043218;28;20223;-56
2024/04/01 03:36:27;;;;;;;4.27;2.70;;;;;22.10;98194.00;;;;2052903;28;20218;-57
2024/04/01 03:37:28;;;;;;;5.50;2.60;;;;;22.10;98203.00;;;;2055148;28;20231;-56
2024/04/01 03:38:28;;;;;;;4.57;3.00;;;;;22.00;98193.00;;;;2047677;28;20215;-57
2024/04/01 03:39:30;;;;;;;4.20;2.50;;;;;22.00;98189.00;;;;2051713;28;20767;-57
2024/04/01 03:40:30;;;;;;;4.78;2.75;;;;;22.10;98192.00;;;;2042176;28;20587;-56
2024/04/01 03:41:31;;;;;;;4.57;2.33;;;;;22.10;98185.00;;;;2052222;28;20226;-57
2024/04/01 03:42:31;;;;;;;3.93;2.87;;;;;22.00;98182.00;;;;2057498;28;20220;-56
2024/04/01 03:43:31;;;;;;;4.37;2.47;;;;;22.00;98183.00;;;;2052199;28;20459;-57
2024/04/01 03:44:32;;;;;;;4.17;2.23;;;;;22.10;98186.00;;;;2049531;28;20220;-57
2024/04/01 03:45:33;;;;;;;5.47;3.10;;;;;22.00;98189.00;;;;2042935;28;20219;-58
2024/04/01 03:46:33;;;;;;;5.03;2.43;;;;;22.00;98180.00;;;;2051811;28;20234;-56
2024/04/01 03:47:33;;;;;;;3.80;2.43;;;;;22.10;98189.00;;;;2049926;28;20965;-56
2024/04/01 03:48:34;;;;;;;3.83;2.20;;;;;22.00;98172.00;;;;2051795;28;20688;-58
2024/04/01 03:49:35;;;;;;;4.07;2.40;;;;;22.00;98178.00;;;;2052025;28;20684;-58
2024/04/01 03:50:41;;;;;;;3.63;2.33;;;;;22.00;98182.00;;;;2041199;28;20455;-57
2024/04/01 03:51:41;;;;;;;3.80;2.40;;;;;22.00;98185.00;;;;2051317;28;20219;-56
2024/04/01 03:52:41;;;;;;;4.40;2.47;;;;;22.00;98183.00;;;;2052331;28;20246;-56
2024/04/01 03:53:42;;;;;;;3.73;2.33;;;;;22.00;98187.00;;;;2051535;28;20220;-61
2024/04/01 03:54:42;;;;;;;5.00;2.40;;;;;22.00;98178.00;;;;2052469;28;20223;-60
2024/04/01 03:55:42;;;;;;;4.33;2.37;;;;;22.00;98181.00;;;;2040425;28;20243;-58
2024/04/01 03:56:43;;;;;;;4.27;2.20;;;;;22.00;98188.00;;;;2052652;28;20215;-58
2024/04/01 03:57:43;;;;;;;4.23;2.03;;;;;22.00;98181.00;;;;2052407;28;20234;-58
2024/04/01 03:58:43;;;;;;;3.50;2.23;;;;;22.10;98181.00;;;;2051973;28;20243;-56
2024/04/01 03:59:44;;;;;;;4.87;2.63;;;;;22.00;98175.00;;;;2052487;28;20227;-57
2024/04/01 04:00:45;;;;;;;5.27;2.87;;;;;22.00;98177.00;;;;2042438;28;20235;-57
2024/04/01 04:01:45;;;;;;;3.77;2.10;;;;;22.00;98176.00;;;;2055856;28;20466;-56
2024/04/01 04:02:45;;;;;;;3.60;2.10;;;;;22.00;98186.00;;;;2049604;28;20712;-57
2024/04/01 04:03:45;;;;;;;4.90;2.60;;;;;22.00;98180.00;;;;2051275;28;20560;-57
2024/04/01 04:04:46;;;;;;;4.57;2.20;;;;;22.00;98173.00;;;;2052755;28;20770;-56
2024/04/01 04:05:46;;;;;;;4.03;1.70;;;;;22.00;98179.00;;;;2041105;28;20242;-57
2024/04/01 04:06:47;;;;;;;5.13;2.47;;;;;22.00;98184.00;;;;2055004;28;20233;-56
2024/04/01 04:07:47;;;;;;;3.57;2.23;;;;;22.00;98181.00;;;;2048974;28;20305;-56
2024/04/01 04:08:48;;;;;;;4.10;2.10;;;;;21.70;98183.00;;;;2052393;28;20447;-57
2024/04/01 04:09:49;;;;;;;3.67;2.13;;;;;22.00;98203.00;;;;2057493;28;20287;-56
2024/04/01 04:10:49;;;;;;;3.70;2.03;;;;;22.00;98190.00;;;;2046550;28;20211;-57
2024/04/01 04:11:49;;;;;;;5.00;2.07;;;;;22.00;98195.00;;;;2052823;28;20479;-57
2024/04/01 04:12:50;;;;;;;3.57;2.00;;;;;22.00;98185.00;;;;2048460;28;20759;-57
2024/04/01 04:13:50;;;;;;;3.70;2.20;;;;;22.00;98193.00;;;;2052660;28;20312;-58
2024/04/01 04:14:51;;;;;;;3.67;1.90;;;;;22.00;98189.00;;;;2051261;28;20219;-57
2024/04/01 04:15:51;;;;;;;3.10;1.70;;;;;22.00;98191.00;;;;2041927;28;20219;-56
2024/04/01 04:16:51;;;;;;;4.03;2.40;;;;;22.00;98189.00;;;;2052595;28;20217;-57
2024/04/01 04:17:52;;;;;;;3.33;1.80;;;;;22.00;98179.00;;;;2050921;28;20231;-57
2024/04/01 04:18:52;;;;;;;4.77;2.07;;;;;22.00;98176.00;;;;2051228;28;20242;-56
2024/04/01 04:19:53;;;;;;;4.63;2.43;;;;;22.00;98176.00;;;;2049753;28;20463;-56
2024/04/01 04:20:56;;;;;;;3.73;2.00;;;;;22.00;98183.00;;;;2045283;28;20215;-56
2024/04/01 04:21:56;;;;;;;3.85;2.10;;;;;22.00;98181.00;;;;2052590;28;20212;-57
2024/04/01 04:22:57;;;;;;;3.00;1.73;;;;;22.00;98185.00;;;;2051707;28;20263;-58
2024/04/01 04:23:57;;;;;;;4.07;2.20;;;;;22.00;98182.00;;;;2052619;28;20302;-56
2024/04/01 04:24:57;;;;;;;4.23;2.00;;;;;22.00;98185.00;;;;2040223;28;20589;-57
2024/04/01 04:25:58;;;;;;;3.73;2.10;;;;;22.00;98187.00;;;;2052385;28;20644;-57
2024/04/01 04:26:58;;;;;;;4.30;2.10;;;;;22.00;98184.00;;;;2050981;28;20690;-57
2024/04/01 04:27:58;;;;;;;3.70;1.90;;;;;22.00;98191.00;;;;2048032;28;20674;-57
2024/04/01 04:28:59;;;;;;;4.10;1.97;;;;;22.00;98193.00;;;;2050861;28;20247;-57
2024/04/01 04:29:59;;;;;;;4.10;1.97;;;;;22.00;98189.00;;;;2045952;28;20218;-56
2024/04/01 04:30:59;;;;;;;4.00;1.80;;;;;22.00;98192.00;;;;2053521;28;20219;-56
2024/04/01 04:32:08;;;;;;;2.90;1.50;;;;;22.00;98207.00;;;;2050917;28;20239;-57
2024/04/01 04:33:08;;;;;;;3.75;1.90;;;;;22.00;98185.00;;;;2050973;28;20952;-57
2024/04/01 04:34:09;;;;;;;2.70;1.40;;;;;22.00;98133.00;;;;2052306;28;20223;-56
2024/04/01 04:35:13;;;;;;;3.45;1.65;;;;;22.00;98201.00;;;;2050266;28;20223;-56
2024/04/01 04:36:13;;;;;;;2.75;1.65;;;;;22.00;98188.00;;;;2047911;28;20739;-56
2024/04/01 04:37:15;;;;;;;4.40;2.00;;;;;22.00;98189.00;;;;2051420;28;20226;-57
2024/04/01 04:38:18;;;;;;;3.22;1.55;;;;;22.00;98181.00;;;;2045717;28;20229;-55
2024/04/01 04:39:24;;;;;;;3.22;1.50;;;;;22.00;98180.00;;;;2051617;28;20215;-56
2024/04/01 04:40:30;;;;;;;2.80;1.75;;;;;21.90;98195.00;;;;2042492;28;20304;-57
2024/04/01 04:41:31;;;;;;;3.17;1.33;;;;;22.00;98179.00;;;;2047137;28;20243;-58
2024/04/01 04:42:31;;;;;;;3.70;1.50;;;;;22.00;98190.00;;;;2050721;28;20220;-57
2024/04/01 04:43:32;;;;;;;3.07;1.60;;;;;22.00;98186.00;;;;2052177;28;20238;-56
2024/04/01 04:44:32;;;;;;;2.87;1.70;;;;;21.60;98190.00;;;;2053312;28;20887;-57
2024/04/01 04:45:32;;;;;;;2.80;1.60;;;;;22.00;98190.00;;;;2042626;28;20235;-57
2024/04/01 04:46:33;;;;;;;3.60;1.83;;;;;22.00;98194.00;;;;2041193;28;20266;-58
2024/04/01 04:47:33;;;;;;;3.90;1.63;;;;;22.00;98192.00;;;;2051562;28;20227;-57
2024/04/01 04:48:33;;;;;;;4.10;2.10;;;;;22.00;98197.00;;;;2051428;28;20702;-57
2024/04/01 04:49:34;;;;;;;4.20;2.10;;;;;22.00;98203.00;;;;2052316;28;20215;-57
2024/04/01 04:50:34;;;;;;;3.70;1.70;;;;;22.00;98197.00;;;;2040691;28;20303;-57
2024/04/01 04:51:34;;;;;;;3.73;1.60;;;;;22.00;98198.00;;;;2053950;28;20226;-58
2024/04/01 04:52:37;;;;;;;3.37;1.77;;;;;21.90;98197.00;;;;2054313;28;20207;-56
2024/04/01 04:53:37;;;;;;;4.97;1.80;;;;;22.00;98198.00;;;;2053606;28;20239;-57
2024/04/01 04:54:37;;;;;;;3.30;1.70;;;;;21.90;98195.00;;;;2047641;28;20227;-57
2024/04/01 04:55:39;;;;;;;4.23;1.53;;;;;22.00;98207.00;;;;2038529;28;20224;-57
2024/04/01 04:56:40;;;;;;;3.40;1.80;;;;;22.00;98197.00;;;;2047740;28;20258;-57
2024/04/01 04:57:40;;;;;;;2.93;1.50;;;;;22.00;98204.00;;;;2051454;28;20263;-58
2024/04/01 04:58:41;;;;;;;3.30;1.77;;;;;21.90;98200.00;;;;2051292;28;20211;-58
2024/04/01 04:59:41;;;;;;;3.03;1.30;;;;;21.90;98202.00;;;;2050539;28;20226;-56
2024/04/01 05:00:41;;;;;;;3.97;1.73;;;;;22.00;98200.00;;;;2039496;28;20220;-56
2024/04/01 05:01:42;;;;;;;2.87;1.43;;;;;22.00;98209.00;;;;2051999;28;20223;-56
2024/04/01 05:02:42;;;;;;;2.80;1.27;;;;;22.00;98207.00;;;;2050552;28;20231;-57